createdAt,value
2022-11-03T00:02:11.712Z,2.83
2022-11-03T00:04:43.412Z,2.80
2022-11-03T00:07:10.258Z,2.65
2022-11-03T00:09:36.781Z,2.85
2022-11-03T00:12:03.475Z,2.10
2022-11-03T00:14:31.230Z,2.20
2022-11-03T00:16:57.712Z,2.90
2022-11-03T00:19:24.172Z,3.28
2022-11-03T00:21:50.779Z,2.70
2022-11-03T00:24:18.451Z,3.05
2022-11-03T00:26:44.920Z,3.25
2022-11-03T00:29:13.264Z,2.35
2022-11-03T00:31:42.005Z,3.03
2022-11-03T00:34:12.407Z,2.42
2022-11-03T00:36:41.418Z,2.85
2022-11-03T00:39:08.623Z,2.78
2022-11-03T00:41:35.643Z,2.92
2022-11-03T00:44:02.230Z,2.42
2022-11-03T00:46:30.328Z,2.45
2022-11-03T00:48:56.804Z,2.42
2022-11-03T00:51:26.307Z,2.90
2022-11-03T00:53:53.917Z,2.50
2022-11-03T00:56:23.685Z,2.55
2022-11-03T00:58:51.607Z,2.67
2022-11-03T01:01:20.477Z,3.40
2022-11-03T01:04:29.109Z,2.17
2022-11-03T01:06:57.496Z,2.97
2022-11-03T01:09:45.789Z,2.35
2022-11-03T01:12:18.050Z,3.00
2022-11-03T01:14:52.596Z,3.13
2022-11-03T01:17:25.037Z,2.80
2022-11-03T01:19:51.781Z,2.97
2022-11-03T01:22:19.513Z,2.75
2022-11-03T01:24:48.036Z,2.95
2022-11-03T01:27:18.368Z,2.42
2022-11-03T01:29:44.977Z,2.25
2022-11-03T01:32:12.179Z,2.47
2022-11-03T01:34:40.702Z,2.75
2022-11-03T01:37:07.543Z,3.28
2022-11-03T01:39:34.314Z,2.83
2022-11-03T01:42:00.926Z,3.13
2022-11-03T01:44:36.899Z,2.85
2022-11-03T01:47:11.923Z,2.83
2022-11-03T01:49:46.921Z,2.63
2022-11-03T01:52:36.151Z,3.00
2022-11-03T01:55:13.398Z,3.05
2022-11-03T01:57:53.961Z,2.97
2022-11-03T02:00:21.276Z,2.13
2022-11-03T02:02:47.872Z,2.85
2022-11-03T02:05:21.763Z,2.65
2022-11-03T02:07:55.929Z,2.78
2022-11-03T02:10:23.825Z,2.60
2022-11-03T02:12:50.583Z,3.33
2022-11-03T02:15:24.281Z,2.72
2022-11-03T02:17:54.031Z,3.10
2022-11-03T02:20:32.485Z,2.78
2022-11-03T02:23:20.184Z,2.95
2022-11-03T02:25:58.045Z,2.25
2022-11-03T02:28:30.406Z,2.75
2022-11-03T02:31:08.286Z,2.25
2022-11-03T02:33:38.000Z,2.50
2022-11-03T02:36:18.961Z,2.53
2022-11-03T02:38:53.727Z,2.60
2022-11-03T02:41:21.786Z,2.80
2022-11-03T02:43:49.157Z,3.17
2022-11-03T02:46:18.467Z,2.55
2022-11-03T02:48:45.304Z,2.70
2022-11-03T02:51:12.076Z,2.58
2022-11-03T02:53:45.768Z,2.42
2022-11-03T02:56:19.551Z,2.90
2022-11-03T02:59:02.758Z,2.75
2022-11-03T03:01:29.309Z,2.30
2022-11-03T03:04:20.989Z,2.45
2022-11-03T03:07:04.599Z,2.70
2022-11-03T03:09:37.338Z,2.53
2022-11-03T03:12:06.675Z,3.03
2022-11-03T03:14:38.732Z,2.33
2022-11-03T03:17:14.069Z,2.08
2022-11-03T03:22:19.436Z,2.17
2022-11-03T03:24:58.456Z,2.47
2022-11-03T03:27:29.578Z,2.85
2022-11-03T03:30:01.214Z,2.42
2022-11-03T03:32:33.205Z,2.40
2022-11-03T03:35:01.900Z,3.05
2022-11-03T03:37:31.307Z,3.08
2022-11-03T03:40:00.880Z,2.65
2022-11-03T03:42:29.422Z,2.42
2022-11-03T03:44:57.337Z,2.75
2022-11-03T03:47:29.530Z,2.25
2022-11-03T03:49:56.799Z,2.38
2022-11-03T03:52:23.933Z,2.97
2022-11-03T03:54:55.648Z,2.78
2022-11-03T03:57:24.223Z,2.17
2022-11-03T03:59:50.866Z,2.33
2022-11-03T04:02:17.708Z,2.60
2022-11-03T04:04:48.244Z,2.20
2022-11-03T04:07:33.472Z,3.10
2022-11-03T04:09:59.946Z,3.13
2022-11-03T04:12:44.846Z,2.20
2022-11-03T04:15:33.698Z,2.77
2022-11-03T04:18:18.723Z,2.30
2022-11-03T04:21:03.833Z,2.38
2022-11-03T04:23:30.357Z,2.47
2022-11-03T04:25:59.123Z,2.70
2022-11-03T04:28:27.940Z,2.83
2022-11-03T04:30:59.432Z,2.38
2022-11-03T04:33:26.461Z,2.90
2022-11-03T04:35:55.427Z,2.33
2022-11-03T04:38:24.053Z,2.47
2022-11-03T04:40:55.443Z,2.42
2022-11-03T04:43:29.892Z,2.50
2022-11-03T04:45:56.451Z,2.38
2022-11-03T04:48:23.812Z,2.30
2022-11-03T04:50:54.144Z,2.30
2022-11-03T04:53:22.165Z,2.70
2022-11-03T04:55:54.161Z,2.08
2022-11-03T04:58:26.920Z,2.92
2022-11-03T05:00:59.295Z,2.63
2022-11-03T05:03:29.952Z,2.67
2022-11-03T05:05:57.504Z,2.60
2022-11-03T05:08:24.948Z,2.50
2022-11-03T05:10:51.654Z,2.05
2022-11-03T05:13:24.581Z,2.35
2022-11-03T05:16:03.557Z,2.40
2022-11-03T05:18:33.165Z,2.45
2022-11-03T05:21:02.693Z,2.70
2022-11-03T05:23:36.729Z,2.63
2022-11-03T05:26:06.191Z,2.40
2022-11-03T05:28:39.322Z,2.53
2022-11-03T05:31:21.288Z,3.85
2022-11-03T05:33:49.842Z,2.63
2022-11-03T05:36:22.201Z,2.83
2022-11-03T05:38:49.153Z,2.15
2022-11-03T05:41:23.412Z,2.97
2022-11-03T05:44:02.255Z,2.67
2022-11-03T05:46:32.842Z,2.90
2022-11-03T05:49:02.455Z,2.53
2022-11-03T05:51:41.717Z,2.20
2022-11-03T05:54:35.131Z,2.30
2022-11-03T05:57:01.628Z,3.10
2022-11-03T05:59:29.685Z,2.53
2022-11-03T06:01:59.917Z,2.38
2022-11-03T06:04:32.675Z,2.20
2022-11-03T06:07:03.252Z,2.65
2022-11-03T06:09:33.631Z,2.22
2022-11-03T06:12:05.667Z,2.60
2022-11-03T06:14:36.628Z,3.15
2022-11-03T06:17:10.363Z,2.53
2022-11-03T06:19:47.981Z,2.72
2022-11-03T06:22:20.586Z,2.15
2022-11-03T06:24:54.937Z,2.83
2022-11-03T06:27:26.272Z,2.53
2022-11-03T06:29:57.948Z,2.42
2022-11-03T06:32:25.030Z,2.72
2022-11-03T06:34:58.768Z,2.40
2022-11-03T06:37:32.735Z,2.97
2022-11-03T06:40:27.926Z,2.55
2022-11-03T06:42:56.262Z,2.50
2022-11-03T06:45:27.008Z,2.70
2022-11-03T06:47:54.142Z,3.53
2022-11-03T06:50:32.277Z,2.78
2022-11-03T06:53:01.624Z,2.55
2022-11-03T06:55:36.804Z,2.25
2022-11-03T06:58:12.127Z,3.35
2022-11-03T07:00:45.918Z,2.53
2022-11-03T07:03:27.150Z,2.42
2022-11-03T07:06:01.519Z,3.25
2022-11-03T07:08:36.048Z,3.08
2022-11-03T07:11:17.090Z,3.37
2022-11-03T07:13:44.131Z,2.78
2022-11-03T07:16:29.812Z,2.60
2022-11-03T07:19:00.039Z,2.72
2022-11-03T07:22:21.096Z,2.95
2022-11-03T07:24:54.213Z,2.67
2022-11-03T07:27:25.408Z,3.35
2022-11-03T07:29:57.702Z,2.40
2022-11-03T07:32:31.079Z,2.20
2022-11-03T07:35:04.968Z,3.10
2022-11-03T07:37:31.757Z,2.83
2022-11-03T07:39:59.259Z,2.33
2022-11-03T07:42:27.424Z,2.88
2022-11-03T07:44:59.630Z,3.15
2022-11-03T07:47:27.908Z,2.65
2022-11-03T07:49:55.848Z,2.50
2022-11-03T07:52:27.177Z,2.17
2022-11-03T07:54:56.857Z,2.72
2022-11-03T07:57:27.244Z,2.40
2022-11-03T08:00:08.890Z,2.33
2022-11-03T08:02:47.988Z,2.45
2022-11-03T08:05:16.021Z,2.20
2022-11-03T08:07:42.628Z,2.50
2022-11-03T08:10:09.667Z,2.10
2022-11-03T08:12:36.146Z,2.45
2022-11-03T08:15:07.326Z,3.15
2022-11-03T08:17:33.794Z,2.50
2022-11-03T08:20:00.293Z,2.08
2022-11-03T08:22:26.739Z,2.60
2022-11-03T08:24:57.492Z,3.25
2022-11-03T08:27:24.182Z,2.80
2022-11-03T08:29:50.667Z,2.25
2022-11-03T08:32:17.113Z,2.38
2022-11-03T08:34:44.568Z,2.70
2022-11-03T08:37:11.223Z,2.80
2022-11-03T08:39:37.766Z,2.58
2022-11-03T08:42:04.296Z,2.63
2022-11-03T08:44:32.307Z,2.63
2022-11-03T08:46:58.967Z,2.60
2022-11-03T08:49:25.418Z,2.80
2022-11-03T08:51:51.939Z,2.72
2022-11-03T08:54:21.964Z,2.33
2022-11-03T08:56:49.375Z,2.90
2022-11-03T08:59:17.993Z,3.22
2022-11-03T09:01:45.045Z,3.15
2022-11-03T09:04:15.679Z,3.05
2022-11-03T09:06:42.198Z,3.10
2022-11-03T09:11:55.118Z,2.70
2022-11-03T09:14:25.575Z,2.72
2022-11-03T09:16:52.094Z,2.40
2022-11-03T09:19:18.612Z,2.53
2022-11-03T09:21:45.064Z,3.40
2022-11-03T09:24:13.035Z,2.83
2022-11-03T09:26:39.523Z,2.47
2022-11-03T09:29:06.175Z,3.00
2022-11-03T09:31:32.643Z,2.67
2022-11-03T09:33:59.128Z,2.45
2022-11-03T09:36:32.666Z,2.42
2022-11-03T09:38:59.172Z,2.83
2022-11-03T09:41:28.205Z,3.38
2022-11-03T09:44:18.424Z,2.53
2022-11-03T09:49:15.266Z,2.22
2022-11-03T09:51:43.052Z,2.45
2022-11-03T09:54:18.343Z,3.10
2022-11-03T09:59:21.368Z,2.65
2022-11-03T10:01:50.952Z,3.13
2022-11-03T10:04:27.933Z,2.58
2022-11-03T10:06:56.102Z,2.50
2022-11-03T10:09:24.129Z,2.20
2022-11-03T10:11:53.042Z,2.33
2022-11-03T10:14:22.590Z,2.33
2022-11-03T10:16:53.977Z,2.20
2022-11-03T10:19:20.617Z,2.60
2022-11-03T10:21:47.432Z,2.53
2022-11-03T10:24:17.004Z,2.40
2022-11-03T10:26:57.376Z,2.13
2022-11-03T10:29:28.530Z,2.45
2022-11-03T10:31:58.390Z,2.58
2022-11-03T10:34:35.046Z,2.30
2022-11-03T10:37:25.672Z,2.20
2022-11-03T10:39:54.343Z,2.25
2022-11-03T10:42:22.341Z,2.50
2022-11-03T10:44:53.808Z,2.58
2022-11-03T10:47:26.124Z,2.47
2022-11-03T10:49:55.242Z,2.60
2022-11-03T10:52:24.542Z,2.70
2022-11-03T10:54:56.367Z,2.60
2022-11-03T10:57:24.100Z,2.15
2022-11-03T10:59:53.147Z,2.38
2022-11-03T11:02:22.244Z,1.83
2022-11-03T11:04:55.661Z,2.22
2022-11-03T11:07:26.911Z,2.13
2022-11-03T11:09:54.370Z,2.08
2022-11-03T11:12:25.441Z,2.28
2022-11-03T11:15:00.408Z,2.28
2022-11-03T11:17:39.096Z,2.03
2022-11-03T11:20:21.562Z,2.13
2022-11-03T11:22:49.700Z,2.13
2022-11-03T11:25:18.620Z,2.40
2022-11-03T11:27:45.059Z,2.03
2022-11-03T11:30:20.718Z,2.08
2022-11-03T11:32:49.906Z,2.20
2022-11-03T11:35:24.954Z,2.70
2022-11-03T11:37:52.064Z,2.45
2022-11-03T11:40:24.876Z,2.42
2022-11-03T11:43:06.905Z,2.42
2022-11-03T11:46:12.188Z,1.98
2022-11-03T11:48:38.738Z,2.55
2022-11-03T11:51:10.693Z,1.67
2022-11-03T11:53:42.268Z,2.00
2022-11-03T11:56:11.765Z,1.90
2022-11-03T11:58:42.941Z,2.03
2022-11-03T12:01:35.226Z,2.10
2022-11-03T12:04:05.435Z,2.10
2022-11-03T12:06:52.087Z,1.70
2022-11-03T12:09:20.719Z,1.63
2022-11-03T12:11:55.409Z,2.17
2022-11-03T12:14:32.672Z,2.00
2022-11-03T12:17:19.134Z,1.85
2022-11-03T12:19:55.034Z,2.53
2022-11-03T12:22:24.538Z,1.70
2022-11-03T12:24:58.983Z,2.25
2022-11-03T12:27:25.489Z,2.30
2022-11-03T12:29:54.068Z,2.15
2022-11-03T12:32:32.618Z,2.85
2022-11-03T12:35:08.123Z,2.10
2022-11-03T12:37:34.926Z,2.30
2022-11-03T12:40:01.406Z,2.20
2022-11-03T12:42:27.950Z,2.20
2022-11-03T12:44:56.045Z,2.50
2022-11-03T12:47:22.902Z,1.88
2022-11-03T12:49:49.431Z,1.90
2022-11-03T12:52:16.249Z,2.25
2022-11-03T12:54:44.481Z,1.90
2022-11-03T12:57:11.008Z,2.20
2022-11-03T12:59:37.480Z,2.10
2022-11-03T13:02:04.407Z,2.08
2022-11-03T13:04:32.818Z,2.40
2022-11-03T13:06:59.363Z,2.00
2022-11-03T13:09:26.032Z,2.20
2022-11-03T13:12:10.826Z,2.08
2022-11-03T13:14:38.813Z,2.80
2022-11-03T13:17:05.312Z,2.25
2022-11-03T13:19:31.917Z,2.33
2022-11-03T13:21:58.395Z,2.20
2022-11-03T13:24:28.810Z,2.47
2022-11-03T13:26:55.276Z,2.38
2022-11-03T13:29:21.765Z,1.95
2022-11-03T13:31:48.258Z,2.35
2022-11-03T13:34:16.023Z,2.42
2022-11-03T13:36:42.536Z,2.05
2022-11-03T13:39:08.983Z,1.70
2022-11-03T13:41:35.924Z,2.03
2022-11-03T13:44:02.966Z,1.92
2022-11-03T13:46:29.524Z,1.90
2022-11-03T13:51:42.602Z,1.85
2022-11-03T13:59:45.585Z,1.98
2022-11-03T14:05:06.993Z,2.15
2022-11-03T14:07:35.816Z,1.98
2022-11-03T14:10:04.338Z,1.80
2022-11-03T14:12:31.305Z,1.80
2022-11-03T14:15:06.192Z,2.20
2022-11-03T14:17:32.917Z,1.70
2022-11-03T14:20:04.220Z,1.83
2022-11-03T14:22:31.705Z,2.38
2022-11-03T14:24:59.031Z,2.08
2022-11-03T14:27:25.591Z,1.70
2022-11-03T14:29:52.169Z,1.80
2022-11-03T14:32:19.558Z,2.25
2022-11-03T14:34:48.097Z,2.00
2022-11-03T14:37:15.387Z,2.38
2022-11-03T14:39:42.103Z,1.98
2022-11-03T14:42:16.040Z,2.30
2022-11-03T14:44:47.738Z,2.25
2022-11-03T14:47:21.477Z,2.03
2022-11-03T14:49:48.974Z,2.22
2022-11-03T14:52:16.790Z,2.50
2022-11-03T14:54:48.261Z,2.15
2022-11-03T14:57:14.804Z,2.97
2022-11-03T14:59:41.717Z,2.60
2022-11-03T15:02:08.409Z,2.35
2022-11-03T15:04:39.021Z,2.10
2022-11-03T15:07:05.499Z,2.85
2022-11-03T15:09:31.987Z,2.45
2022-11-03T15:11:58.479Z,2.60
2022-11-03T15:14:24.981Z,3.05
2022-11-03T15:16:51.429Z,2.35
2022-11-03T15:19:17.909Z,2.88
2022-11-03T15:21:44.480Z,3.08
2022-11-03T15:27:01.777Z,2.80
2022-11-03T15:29:28.236Z,2.58
2022-11-03T15:31:54.675Z,2.95
2022-11-03T15:34:25.400Z,2.55
2022-11-03T15:36:51.884Z,2.30
2022-11-03T15:39:18.351Z,2.55
2022-11-03T15:41:44.925Z,2.63
2022-11-03T15:44:12.841Z,3.20
2022-11-03T15:46:39.291Z,2.72
2022-11-03T15:49:05.750Z,2.30
2022-11-03T15:51:32.226Z,2.20
2022-11-03T15:53:59.407Z,2.40
2022-11-03T15:56:29.685Z,2.60
2022-11-03T15:58:56.376Z,2.67
2022-11-03T16:01:22.939Z,2.50
2022-11-03T16:03:49.557Z,2.70
2022-11-03T16:06:17.422Z,2.90
2022-11-03T16:08:43.890Z,2.60
2022-11-03T16:11:10.437Z,2.90
2022-11-03T16:13:36.891Z,2.60
2022-11-03T16:16:04.328Z,2.78
2022-11-03T16:18:30.786Z,3.00
2022-11-03T16:20:57.281Z,2.60
2022-11-03T16:23:23.782Z,2.47
2022-11-03T16:25:50.321Z,2.70
2022-11-03T16:28:16.884Z,2.70
2022-11-03T16:30:43.377Z,2.90
2022-11-03T16:33:10.159Z,2.70
2022-11-03T16:35:40.565Z,2.90
2022-11-03T16:38:09.581Z,2.70
2022-11-03T16:40:36.252Z,2.80
2022-11-03T16:43:02.982Z,3.53
2022-11-03T16:45:37.263Z,3.58
2022-11-03T16:48:05.099Z,2.65
2022-11-03T16:50:32.475Z,3.00
2022-11-03T16:52:58.967Z,3.72
2022-11-03T16:55:29.131Z,3.22
2022-11-03T16:57:55.675Z,3.40
2022-11-03T17:00:23.979Z,3.50
2022-11-03T17:02:50.970Z,3.53
2022-11-03T17:05:19.124Z,3.53
2022-11-03T17:07:52.823Z,3.88
2022-11-03T17:10:20.253Z,3.70
2022-11-03T17:12:46.865Z,3.78
2022-11-03T17:15:15.237Z,3.90
2022-11-03T17:17:41.736Z,3.78
2022-11-03T17:20:10.582Z,4.57
2022-11-03T17:22:37.481Z,3.78
2022-11-03T17:25:06.788Z,4.38
2022-11-03T17:27:44.645Z,5.05
2022-11-03T17:30:17.037Z,5.13
2022-11-03T17:32:44.079Z,3.90
2022-11-03T17:35:38.674Z,4.10
2022-11-03T17:38:13.765Z,4.20
2022-11-03T17:40:42.766Z,3.97
2022-11-03T17:43:20.489Z,4.15
2022-11-03T17:45:48.475Z,4.10
2022-11-03T17:48:15.533Z,4.50
2022-11-03T17:50:47.853Z,4.78
2022-11-03T17:53:26.677Z,4.40
2022-11-03T17:58:47.254Z,4.53
2022-11-03T18:01:21.986Z,4.18
2022-11-03T18:03:48.695Z,4.13
2022-11-03T18:06:17.193Z,4.03
2022-11-03T18:08:44.539Z,3.80
2022-11-03T18:11:34.483Z,4.00
2022-11-03T18:14:02.633Z,4.00
2022-11-03T18:16:31.365Z,3.70
2022-11-03T18:18:58.449Z,4.40
2022-11-03T18:21:24.926Z,3.97
2022-11-03T18:23:51.425Z,4.40
2022-11-03T18:26:23.316Z,4.07
2022-11-03T18:28:50.478Z,3.90
2022-11-03T18:31:36.314Z,3.67
2022-11-03T18:36:37.302Z,4.28
2022-11-03T18:39:04.519Z,4.18
2022-11-03T18:41:39.241Z,3.83
2022-11-03T18:44:22.295Z,3.42
2022-11-03T18:46:51.153Z,3.42
2022-11-03T18:49:18.879Z,3.40
2022-11-03T18:51:49.333Z,3.60
2022-11-03T18:54:22.991Z,3.40
2022-11-03T18:56:52.958Z,3.90
2022-11-03T18:59:23.999Z,3.05
2022-11-03T19:01:51.081Z,4.03
2022-11-03T19:04:19.784Z,3.30
2022-11-03T19:06:48.201Z,3.63
2022-11-03T19:09:20.813Z,3.88
2022-11-03T19:11:49.409Z,3.15
2022-11-03T19:14:25.188Z,3.15
2022-11-03T19:17:17.150Z,3.30
2022-11-03T19:19:39.818Z,3.05
2022-11-03T19:22:12.482Z,2.85
2022-11-03T19:24:41.398Z,2.90
2022-11-03T19:27:15.206Z,2.83
2022-11-03T19:29:42.464Z,2.90
2022-11-03T19:32:17.509Z,2.97
2022-11-03T19:34:45.089Z,2.88
2022-11-03T19:37:12.071Z,2.88
2022-11-03T19:39:40.999Z,3.05
2022-11-03T19:42:28.745Z,3.15
2022-11-03T19:45:02.324Z,2.80
2022-11-03T19:47:35.624Z,3.38
2022-11-03T19:50:04.184Z,3.78
2022-11-03T19:52:31.765Z,3.25
2022-11-03T19:55:05.678Z,3.33
2022-11-03T19:57:32.701Z,3.10
2022-11-03T19:59:59.467Z,3.22
2022-11-03T20:02:27.932Z,3.15
2022-11-03T20:04:58.949Z,3.35
2022-11-03T20:07:31.066Z,2.80
2022-11-03T20:09:58.708Z,3.00
2022-11-03T20:12:25.342Z,3.05
2022-11-03T20:14:51.812Z,3.05
2022-11-03T20:17:19.933Z,3.15
2022-11-03T20:19:46.422Z,2.90
2022-11-03T20:22:18.225Z,3.13
2022-11-03T20:24:46.515Z,3.15
2022-11-03T20:27:14.822Z,3.55
2022-11-03T20:29:41.475Z,3.78
2022-11-03T20:32:12.591Z,3.80
2022-11-03T20:34:40.976Z,3.17
2022-11-03T20:37:18.065Z,3.20
2022-11-03T20:39:45.832Z,3.45
2022-11-03T20:42:24.245Z,3.60
2022-11-03T20:44:52.581Z,3.67
2022-11-03T20:47:19.324Z,4.30
2022-11-03T20:49:45.928Z,3.55
2022-11-03T20:52:13.706Z,3.33
2022-11-03T20:54:44.744Z,3.55
2022-11-03T20:57:14.411Z,3.78
2022-11-03T20:59:41.424Z,3.88
2022-11-03T21:02:12.866Z,3.67
2022-11-03T21:04:40.644Z,3.80
2022-11-03T21:07:09.618Z,3.42
2022-11-03T21:09:36.064Z,3.40
2022-11-03T21:12:02.585Z,3.42
2022-11-03T21:14:31.342Z,4.15
2022-11-03T21:17:16.348Z,3.70
2022-11-03T21:20:07.822Z,3.97
2022-11-03T21:22:55.122Z,3.95
2022-11-03T21:25:24.707Z,4.18
2022-11-03T21:27:53.629Z,3.75
2022-11-03T21:30:20.576Z,3.25
2022-11-03T21:32:47.806Z,3.70
2022-11-03T21:35:17.675Z,3.95
2022-11-03T21:37:44.127Z,4.07
2022-11-03T21:40:11.408Z,4.47
2022-11-03T21:42:56.547Z,4.20
2022-11-03T21:45:25.075Z,4.13
2022-11-03T21:48:13.559Z,3.90
2022-11-03T21:50:41.278Z,3.90
2022-11-03T21:53:08.276Z,4.15
2022-11-03T21:55:40.126Z,4.57
2022-11-03T21:58:07.259Z,5.07
2022-11-03T22:00:34.452Z,5.07
2022-11-03T22:03:01.298Z,5.28
2022-11-03T22:05:29.415Z,5.40
2022-11-03T22:07:56.166Z,5.82
2022-11-03T22:10:22.966Z,5.38
2022-11-03T22:12:49.454Z,5.70
2022-11-03T22:15:35.471Z,5.32
2022-11-03T22:18:03.376Z,4.82
2022-11-03T22:20:48.129Z,4.43
2022-11-03T22:23:34.240Z,4.60
2022-11-03T22:26:19.789Z,4.45
2022-11-03T22:28:46.281Z,3.90
2022-11-03T22:31:31.048Z,3.88
2022-11-03T22:34:17.065Z,4.60
2022-11-03T22:36:43.549Z,4.63
2022-11-03T22:39:28.461Z,4.50
2022-11-03T22:42:13.232Z,4.73
2022-11-03T22:44:58.250Z,5.00
2022-11-03T22:47:26.723Z,5.03
2022-11-03T22:49:53.260Z,5.57
2022-11-03T22:52:19.704Z,5.70
2022-11-03T22:54:47.491Z,5.72
2022-11-03T22:57:13.945Z,5.80
2022-11-03T22:59:41.081Z,4.80
2022-11-03T23:02:07.753Z,4.60
2022-11-03T23:04:37.421Z,3.97
2022-11-03T23:07:03.873Z,3.90
2022-11-03T23:09:30.425Z,3.92
2022-11-03T23:11:56.885Z,3.90
2022-11-03T23:14:46.379Z,3.30
2022-11-03T23:17:12.821Z,2.65
2022-11-03T23:19:57.673Z,2.95
2022-11-03T23:22:24.144Z,3.57
2022-11-03T23:25:01.479Z,2.92
2022-11-03T23:27:28.588Z,3.17
2022-11-03T23:29:55.123Z,3.28
2022-11-03T23:32:21.646Z,3.50
2022-11-03T23:34:50.081Z,3.75
2022-11-03T23:37:16.563Z,4.05
2022-11-03T23:39:43.025Z,4.47
2022-11-03T23:42:09.557Z,4.65
2022-11-03T23:44:57.436Z,4.25
2022-11-03T23:47:42.386Z,4.93
2022-11-03T23:50:09.015Z,4.73
2022-11-03T23:52:35.478Z,4.57
2022-11-03T23:55:07.382Z,4.78
2022-11-03T23:57:52.811Z,4.47
